createdAt,value
2018-08-14T00:00:49.851Z,17.53
2018-08-14T00:03:54.826Z,17.34
2018-08-14T00:06:59.812Z,17.18
2018-08-14T00:10:06.195Z,17.18
2018-08-14T00:13:12.563Z,17.14
2018-08-14T00:16:17.548Z,17.31
2018-08-14T00:19:22.524Z,17.32
2018-08-14T00:22:27.561Z,17.24
2018-08-14T00:25:32.614Z,17.12
2018-08-14T00:28:37.599Z,17.16
2018-08-14T00:31:42.586Z,17.10
2018-08-14T00:34:52.843Z,16.97
2018-08-14T00:37:57.976Z,16.94
2018-08-14T00:41:03.011Z,17.11
2018-08-14T00:44:08.059Z,17.21
2018-08-14T00:47:13.072Z,17.20
2018-08-14T00:50:18.118Z,16.95
2018-08-14T00:53:23.091Z,16.77
2018-08-14T00:56:28.114Z,16.45
2018-08-14T00:59:33.146Z,16.44
2018-08-14T01:02:38.142Z,16.26
2018-08-14T01:05:43.143Z,16.35
2018-08-14T01:08:48.168Z,16.29
2018-08-14T01:11:53.600Z,16.35
2018-08-14T01:14:58.598Z,16.32
2018-08-14T01:18:03.619Z,16.27
2018-08-14T01:21:08.639Z,16.28
2018-08-14T01:24:13.672Z,16.33
2018-08-14T01:27:18.679Z,16.34
2018-08-14T01:30:25.258Z,16.29
2018-08-14T01:33:30.230Z,16.43
2018-08-14T01:36:35.235Z,16.38
2018-08-14T01:39:40.220Z,16.49
2018-08-14T01:42:45.275Z,16.53
2018-08-14T01:45:50.292Z,16.61
2018-08-14T01:48:55.251Z,16.64
2018-08-14T01:52:00.278Z,16.72
2018-08-14T01:55:05.985Z,16.71
2018-08-14T01:58:10.990Z,16.57
2018-08-14T02:01:15.963Z,16.55
2018-08-14T02:04:20.964Z,16.57
2018-08-14T02:07:25.959Z,16.46
2018-08-14T02:10:30.998Z,16.39
2018-08-14T02:13:35.979Z,16.45
2018-08-14T02:16:40.969Z,16.47
2018-08-14T02:19:45.967Z,16.44
2018-08-14T02:22:52.344Z,16.43
2018-08-14T02:25:57.359Z,16.40
2018-08-14T02:29:02.384Z,16.25
2018-08-14T02:32:07.400Z,16.17
2018-08-14T02:35:12.904Z,16.20
2018-08-14T02:38:17.895Z,16.11
2018-08-14T02:41:22.899Z,16.17
2018-08-14T02:44:27.871Z,16.11
2018-08-14T02:47:48.359Z,16.04
2018-08-14T02:50:53.399Z,15.96
2018-08-14T02:53:58.451Z,15.91
2018-08-14T02:57:03.492Z,15.82
2018-08-14T03:00:15.462Z,15.75
2018-08-14T03:03:20.505Z,15.69
2018-08-14T03:06:25.516Z,15.74
2018-08-14T03:09:30.559Z,15.84
2018-08-14T03:12:35.763Z,15.80
2018-08-14T03:15:40.775Z,15.72
2018-08-14T03:18:45.804Z,15.88
2018-08-14T03:21:50.839Z,15.90
2018-08-14T03:24:55.877Z,15.92
2018-08-14T03:28:00.887Z,15.90
2018-08-14T03:31:05.890Z,15.90
2018-08-14T03:34:10.895Z,15.91
2018-08-14T03:37:15.947Z,15.85
2018-08-14T03:40:20.946Z,15.87
2018-08-14T03:43:25.956Z,15.88
2018-08-14T03:46:30.954Z,15.84
2018-08-14T03:49:36.014Z,15.81
2018-08-14T03:52:42.423Z,15.77
2018-08-14T03:55:47.455Z,15.76
2018-08-14T03:58:52.482Z,15.73
2018-08-14T04:01:57.506Z,15.71
2018-08-14T04:05:02.551Z,15.68
2018-08-14T04:08:07.579Z,15.78
2018-08-14T04:11:12.591Z,15.88
2018-08-14T04:14:18.870Z,15.91
2018-08-14T04:17:23.885Z,15.85
2018-08-14T04:20:28.944Z,15.85
2018-08-14T04:23:33.930Z,15.82
2018-08-14T04:26:39.017Z,15.86
2018-08-14T04:29:44.031Z,15.89
2018-08-14T04:32:49.026Z,15.92
2018-08-14T04:35:54.003Z,15.85
2018-08-14T04:38:58.994Z,15.98
2018-08-14T04:42:04.039Z,16.00
2018-08-14T04:45:09.331Z,16.12
2018-08-14T04:48:14.318Z,16.23
2018-08-14T04:51:19.339Z,16.31
2018-08-14T04:54:24.315Z,16.32
2018-08-14T04:57:29.506Z,16.39
2018-08-14T05:00:34.554Z,16.45
2018-08-14T05:03:39.567Z,16.54
2018-08-14T05:06:44.578Z,16.62
2018-08-14T05:09:49.572Z,16.72
2018-08-14T05:12:54.547Z,16.81
2018-08-14T05:15:59.519Z,16.89
2018-08-14T05:19:04.747Z,16.98
2018-08-14T05:22:09.759Z,17.09
2018-08-14T05:25:14.775Z,17.16
2018-08-14T05:28:19.782Z,17.27
2018-08-14T05:31:24.811Z,17.37
2018-08-14T05:34:29.857Z,17.46
2018-08-14T05:37:34.915Z,17.40
2018-08-14T05:40:39.950Z,17.42
2018-08-14T05:43:45.061Z,17.46
2018-08-14T05:46:50.142Z,17.48
2018-08-14T05:49:55.224Z,17.46
2018-08-14T05:53:00.355Z,17.51
2018-08-14T05:56:05.366Z,17.54
2018-08-14T05:59:10.788Z,17.70
2018-08-14T06:02:15.867Z,17.84
2018-08-14T06:05:20.903Z,18.07
2018-08-14T06:08:25.972Z,18.44
2018-08-14T06:11:30.991Z,18.67
2018-08-14T06:14:36.032Z,18.89
2018-08-14T06:17:41.084Z,19.26
2018-08-14T06:20:46.154Z,19.53
2018-08-14T06:23:51.200Z,19.60
2018-08-14T06:26:56.191Z,19.60
2018-08-14T06:30:01.216Z,19.76
2018-08-14T06:33:06.263Z,19.83
2018-08-14T06:36:11.333Z,19.70
2018-08-14T06:39:16.331Z,19.53
2018-08-14T06:42:21.332Z,19.38
2018-08-14T06:45:26.383Z,19.16
2018-08-14T06:48:31.573Z,18.88
2018-08-14T06:51:36.658Z,18.74
2018-08-14T06:54:41.700Z,18.77
2018-08-14T06:57:47.012Z,19.12
2018-08-14T07:00:52.006Z,19.51
2018-08-14T07:03:57.039Z,19.64
2018-08-14T07:07:02.027Z,20.12
2018-08-14T07:10:08.499Z,20.76
2018-08-14T07:13:13.479Z,21.03
2018-08-14T07:16:18.551Z,21.02
2018-08-14T07:19:23.584Z,21.15
2018-08-14T07:22:28.582Z,21.40
2018-08-14T07:25:33.638Z,21.20
2018-08-14T07:28:38.716Z,21.03
2018-08-14T07:31:43.735Z,21.08
2018-08-14T07:34:48.718Z,20.81
2018-08-14T07:37:53.754Z,20.73
2018-08-14T07:40:58.772Z,20.88
2018-08-14T07:44:03.848Z,21.35
2018-08-14T07:47:08.889Z,21.95
2018-08-14T07:50:14.283Z,22.26
2018-08-14T07:53:19.268Z,22.25
2018-08-14T07:56:24.288Z,21.93
2018-08-14T07:59:29.300Z,22.09
2018-08-14T08:02:34.327Z,22.42
2018-08-14T08:05:39.359Z,22.99
2018-08-14T08:08:44.368Z,23.49
2018-08-14T08:11:49.420Z,23.59
2018-08-14T08:14:54.454Z,23.40
2018-08-14T08:17:59.496Z,23.17
2018-08-14T08:21:04.558Z,23.82
2018-08-14T08:24:09.608Z,24.22
2018-08-14T08:27:14.636Z,24.73
2018-08-14T08:30:19.692Z,24.56
2018-08-14T08:33:24.703Z,24.31
2018-08-14T08:36:29.754Z,23.65
2018-08-14T08:39:34.962Z,23.81
2018-08-14T08:42:40.120Z,24.10
2018-08-14T08:45:45.186Z,24.43
2018-08-14T08:48:50.207Z,24.68
2018-08-14T08:51:55.269Z,24.92
2018-08-14T08:55:00.292Z,25.24
2018-08-14T08:58:05.398Z,25.08
2018-08-14T09:01:10.399Z,25.24
2018-08-14T09:04:15.419Z,25.46
2018-08-14T09:07:20.479Z,25.79
2018-08-14T09:10:25.485Z,25.99
2018-08-14T09:13:30.522Z,26.09
2018-08-14T09:16:35.746Z,26.28
2018-08-14T09:19:40.890Z,25.69
2018-08-14T09:22:45.919Z,24.94
2018-08-14T09:25:50.927Z,24.51
2018-08-14T09:28:55.982Z,24.34
2018-08-14T09:32:01.139Z,23.90
2018-08-14T09:35:06.704Z,23.85
2018-08-14T09:38:11.759Z,23.91
2018-08-14T09:41:16.791Z,23.83
2018-08-14T09:44:21.834Z,23.67
2018-08-14T09:47:26.856Z,23.91
2018-08-14T09:50:31.884Z,23.99
2018-08-14T09:53:36.943Z,23.93
2018-08-14T09:56:41.968Z,24.06
2018-08-14T09:59:47.020Z,24.30
2018-08-14T10:02:57.839Z,24.89
2018-08-14T10:06:08.600Z,25.03
2018-08-14T10:09:13.687Z,25.63
2018-08-14T10:12:18.734Z,25.69
2018-08-14T10:15:23.771Z,25.35
2018-08-14T10:18:28.855Z,25.27
2018-08-14T10:21:33.943Z,25.73
2018-08-14T10:24:39.039Z,26.22
2018-08-14T10:27:44.099Z,26.29
2018-08-14T10:30:49.239Z,25.46
2018-08-14T10:33:54.331Z,24.99
2018-08-14T10:36:59.430Z,24.91
2018-08-14T10:40:07.221Z,25.05
2018-08-14T10:43:12.260Z,25.11
2018-08-14T10:46:17.416Z,24.96
2018-08-14T10:49:22.514Z,25.29
2018-08-14T10:52:27.616Z,25.56
2018-08-14T10:55:32.650Z,25.55
2018-08-14T10:58:37.751Z,25.45
2018-08-14T11:01:42.788Z,25.50
2018-08-14T11:04:47.838Z,25.35
2018-08-14T11:07:53.309Z,25.49
2018-08-14T11:11:11.939Z,25.90
2018-08-14T11:14:17.027Z,26.35
2018-08-14T11:17:27.167Z,25.96
2018-08-14T11:20:32.235Z,25.86
2018-08-14T11:23:37.296Z,25.59
2018-08-14T11:26:42.385Z,25.36
2018-08-14T11:29:47.487Z,25.16
2018-08-14T11:32:52.860Z,24.89
2018-08-14T11:36:03.539Z,25.10
2018-08-14T11:39:09.262Z,25.91
2018-08-14T11:42:14.354Z,26.47
2018-08-14T11:45:21.590Z,26.72
2018-08-14T11:48:26.634Z,27.03
2018-08-14T11:51:31.964Z,26.97
2018-08-14T11:54:37.036Z,26.65
2018-08-14T11:57:42.231Z,26.43
2018-08-14T12:00:47.316Z,25.81
2018-08-14T12:03:52.390Z,26.11
2018-08-14T12:06:57.504Z,26.76
2018-08-14T12:10:02.966Z,27.21
2018-08-14T12:13:07.991Z,28.00
2018-08-14T12:16:13.024Z,28.33
2018-08-14T12:19:18.106Z,27.94
2018-08-14T12:22:23.108Z,26.81
2018-08-14T12:25:28.135Z,26.35
2018-08-14T12:28:33.217Z,26.00
2018-08-14T12:31:38.266Z,25.91
2018-08-14T12:34:43.283Z,26.07
2018-08-14T12:37:48.360Z,25.66
2018-08-14T12:40:53.419Z,25.01
2018-08-14T12:43:58.479Z,25.11
2018-08-14T12:47:03.528Z,25.36
2018-08-14T12:50:09.370Z,25.54
2018-08-14T12:53:14.435Z,25.66
2018-08-14T12:56:19.507Z,25.91
2018-08-14T12:59:24.859Z,25.91
2018-08-14T13:02:29.923Z,25.80
2018-08-14T13:05:34.947Z,25.75
2018-08-14T13:08:40.093Z,25.33
2018-08-14T13:11:45.175Z,25.04
2018-08-14T13:14:50.283Z,24.93
2018-08-14T13:18:02.334Z,25.18
2018-08-14T13:21:07.409Z,25.35
2018-08-14T13:24:12.609Z,25.35
2018-08-14T13:27:17.655Z,25.42
2018-08-14T13:30:22.750Z,25.88
2018-08-14T13:33:27.772Z,25.96
2018-08-14T13:36:32.819Z,26.06
2018-08-14T13:39:37.964Z,26.07
2018-08-14T13:42:45.969Z,25.55
2018-08-14T13:45:51.176Z,25.53
2018-08-14T13:48:56.243Z,25.54
2018-08-14T13:52:01.418Z,25.69
2018-08-14T13:55:10.415Z,25.54
2018-08-14T13:58:15.439Z,25.71
2018-08-14T14:01:20.538Z,26.09
2018-08-14T14:04:25.644Z,26.17
2018-08-14T14:07:30.681Z,26.24
2018-08-14T14:10:35.763Z,25.92
2018-08-14T14:13:40.814Z,25.73
2018-08-14T14:16:45.851Z,25.89
2018-08-14T14:19:50.932Z,25.83
2018-08-14T14:22:56.041Z,25.89
2018-08-14T14:26:01.139Z,25.96
2018-08-14T14:29:06.172Z,25.88
2018-08-14T14:32:11.354Z,25.63
2018-08-14T14:35:16.458Z,25.54
2018-08-14T14:38:21.540Z,25.61
2018-08-14T14:41:26.592Z,25.35
2018-08-14T14:44:31.659Z,25.25
2018-08-14T14:47:36.767Z,25.16
2018-08-14T14:50:41.804Z,25.21
2018-08-14T14:53:46.823Z,25.29
2018-08-14T14:56:51.839Z,25.12
2018-08-14T14:59:56.862Z,25.05
2018-08-14T15:03:01.952Z,25.05
2018-08-14T15:06:07.047Z,25.15
2018-08-14T15:09:12.851Z,25.32
2018-08-14T15:12:17.927Z,25.47
2018-08-14T15:15:22.971Z,25.39
2018-08-14T15:18:28.050Z,25.55
2018-08-14T15:21:33.099Z,25.56
2018-08-14T15:24:38.128Z,25.61
2018-08-14T15:28:59.802Z,25.50
2018-08-14T15:32:05.053Z,25.38
2018-08-14T15:35:10.072Z,25.39
2018-08-14T15:38:15.128Z,25.35
2018-08-14T15:41:20.197Z,25.33
2018-08-14T15:44:25.236Z,25.17
2018-08-14T15:47:30.303Z,25.19
2018-08-14T15:50:35.336Z,25.18
2018-08-14T15:53:40.414Z,25.11
2018-08-14T15:56:46.070Z,25.19
2018-08-14T15:59:51.084Z,25.24
2018-08-14T16:02:56.159Z,25.27
2018-08-14T16:06:01.271Z,25.53
2018-08-14T16:09:23.158Z,25.52
2018-08-14T16:12:28.195Z,25.49
2018-08-14T16:15:33.267Z,25.59
2018-08-14T16:18:38.368Z,25.63
2018-08-14T16:21:43.384Z,25.48
2018-08-14T16:24:48.418Z,25.43
2018-08-14T16:27:53.447Z,25.55
2018-08-14T16:30:58.519Z,25.53
2018-08-14T16:34:03.602Z,25.47
2018-08-14T16:37:08.727Z,25.58
2018-08-14T16:40:13.899Z,25.76
2018-08-14T16:43:19.055Z,25.71
2018-08-14T16:46:24.091Z,25.51
2018-08-14T16:49:29.123Z,25.26
2018-08-14T16:52:34.132Z,25.14
2018-08-14T16:55:39.256Z,25.09
2018-08-14T16:58:45.212Z,24.87
2018-08-14T17:01:50.267Z,24.73
2018-08-14T17:04:55.278Z,24.45
2018-08-14T17:08:00.385Z,24.47
2018-08-14T17:11:05.554Z,24.55
2018-08-14T17:14:10.603Z,24.70
2018-08-14T17:17:15.672Z,24.73
2018-08-14T17:20:19.755Z,24.61
2018-08-14T17:23:24.793Z,24.50
2018-08-14T17:26:29.818Z,24.61
2018-08-14T17:29:34.834Z,24.54
2018-08-14T17:32:39.895Z,24.51
2018-08-14T17:35:44.877Z,24.48
2018-08-14T17:38:49.906Z,24.39
2018-08-14T17:41:54.907Z,24.36
2018-08-14T17:44:59.939Z,24.26
2018-08-14T17:48:05.210Z,24.11
2018-08-14T17:51:10.255Z,24.01
2018-08-14T17:54:15.311Z,23.91
2018-08-14T17:57:20.346Z,23.78
2018-08-14T18:00:28.962Z,23.76
2018-08-14T18:03:33.999Z,23.72
2018-08-14T18:06:39.023Z,23.70
2018-08-14T18:09:44.096Z,23.53
2018-08-14T18:12:49.146Z,23.54
2018-08-14T18:15:54.223Z,23.52
2018-08-14T18:18:59.275Z,23.33
2018-08-14T18:22:04.299Z,23.25
2018-08-14T18:25:11.208Z,23.18
2018-08-14T18:28:16.206Z,23.13
2018-08-14T18:31:21.251Z,23.04
2018-08-14T18:34:26.243Z,22.93
2018-08-14T18:37:31.273Z,22.81
2018-08-14T18:40:36.297Z,22.72
2018-08-14T18:43:41.306Z,22.62
2018-08-14T18:46:46.312Z,22.80
2018-08-14T18:49:51.311Z,22.89
2018-08-14T18:52:56.315Z,22.93
2018-08-14T18:56:01.358Z,23.01
2018-08-14T18:59:06.372Z,23.08
2018-08-14T19:02:11.367Z,22.63
2018-08-14T19:05:16.502Z,22.39
2018-08-14T19:08:21.548Z,22.27
2018-08-14T19:11:26.550Z,22.14
2018-08-14T19:14:31.551Z,22.03
2018-08-14T19:17:36.534Z,21.97
2018-08-14T19:20:41.551Z,21.80
2018-08-14T19:25:16.132Z,21.84
2018-08-14T19:28:21.126Z,21.79
2018-08-14T19:31:26.131Z,21.93
2018-08-14T19:34:31.103Z,21.96
2018-08-14T19:37:36.478Z,21.97
2018-08-14T19:40:41.494Z,21.93
2018-08-14T19:43:46.539Z,21.91
2018-08-14T19:46:51.570Z,21.84
2018-08-14T19:49:56.568Z,21.72
2018-08-14T19:53:01.595Z,21.63
2018-08-14T19:56:06.689Z,21.63
2018-08-14T19:59:11.715Z,21.60
2018-08-14T20:02:16.776Z,21.60
2018-08-14T20:05:22.159Z,21.54
2018-08-14T20:08:27.191Z,21.45
2018-08-14T20:11:32.344Z,21.32
2018-08-14T20:14:37.248Z,21.28
2018-08-14T20:17:42.307Z,21.21
2018-08-14T20:20:47.325Z,21.13
2018-08-14T20:23:52.363Z,21.04
2018-08-14T20:26:57.682Z,20.99
2018-08-14T20:30:04.040Z,20.94
2018-08-14T20:33:09.062Z,20.82
2018-08-14T20:36:14.100Z,20.67
2018-08-14T20:39:19.135Z,20.37
2018-08-14T20:42:24.146Z,20.04
2018-08-14T20:45:29.147Z,20.03
2018-08-14T20:48:34.179Z,19.90
2018-08-14T20:51:39.189Z,19.82
2018-08-14T20:54:44.195Z,19.86
2018-08-14T20:57:49.215Z,19.91
2018-08-14T21:04:14.199Z,19.49
2018-08-14T21:07:19.228Z,19.47
2018-08-14T21:10:24.240Z,19.43
2018-08-14T21:13:29.260Z,19.48
2018-08-14T21:16:34.254Z,19.57
2018-08-14T21:19:39.259Z,19.54
2018-08-14T21:22:44.984Z,19.45
2018-08-14T21:25:50.064Z,19.44
2018-08-14T21:31:59.528Z,19.09
2018-08-14T21:35:06.178Z,19.06
2018-08-14T21:38:11.211Z,19.00
2018-08-14T21:41:16.243Z,18.96
2018-08-14T21:44:21.262Z,19.01
2018-08-14T21:47:26.350Z,19.06
2018-08-14T21:50:31.357Z,19.07
2018-08-14T21:53:36.363Z,18.88
2018-08-14T21:56:41.390Z,18.67
2018-08-14T22:03:55.401Z,18.69
2018-08-14T22:07:00.378Z,18.56
2018-08-14T22:10:05.624Z,18.51
2018-08-14T22:13:10.618Z,18.46
2018-08-14T22:16:15.675Z,18.37
2018-08-14T22:19:20.692Z,18.48
2018-08-14T22:22:25.722Z,18.54
2018-08-14T22:25:30.759Z,18.49
2018-08-14T22:28:35.756Z,18.19
2018-08-14T22:31:40.780Z,18.01
2018-08-14T22:34:45.780Z,18.13
2018-08-14T22:37:50.810Z,18.15
2018-08-14T22:40:55.818Z,17.92
2018-08-14T22:44:00.856Z,17.96
2018-08-14T22:47:05.855Z,18.00
2018-08-14T22:50:10.900Z,17.92
2018-08-14T22:53:15.959Z,17.87
2018-08-14T22:56:20.982Z,17.86
2018-08-14T22:59:25.966Z,17.85
2018-08-14T23:02:30.961Z,17.91
2018-08-14T23:05:35.970Z,17.81
2018-08-14T23:08:40.970Z,17.75
2018-08-14T23:11:45.956Z,17.71
2018-08-14T23:14:50.964Z,17.60
2018-08-14T23:17:55.979Z,17.32
2018-08-14T23:21:00.991Z,17.30
2018-08-14T23:24:06.226Z,17.41
2018-08-14T23:27:11.198Z,17.51
2018-08-14T23:30:16.239Z,17.43
2018-08-14T23:33:21.271Z,17.25
2018-08-14T23:36:26.247Z,17.17
2018-08-14T23:39:31.271Z,17.09
2018-08-14T23:42:36.266Z,17.08
2018-08-14T23:45:41.264Z,17.17
2018-08-14T23:48:46.258Z,17.24
2018-08-14T23:51:51.255Z,17.24
2018-08-14T23:54:56.395Z,17.28
2018-08-14T23:58:01.447Z,17.32
